createdAt,value
2019-03-10T00:00:39.463Z,98.50
2019-03-10T00:02:15.724Z,98.60
2019-03-10T00:03:51.955Z,98.70
2019-03-10T00:05:28.163Z,98.70
2019-03-10T00:07:04.321Z,98.70
2019-03-10T00:08:40.472Z,98.80
2019-03-10T00:10:16.752Z,98.80
2019-03-10T00:11:52.969Z,98.90
2019-03-10T00:13:29.471Z,99.00
2019-03-10T00:15:09.123Z,99.00
2019-03-10T00:16:45.329Z,98.90
2019-03-10T00:18:21.564Z,98.90
2019-03-10T00:19:57.911Z,98.90
2019-03-10T00:21:34.041Z,98.90
2019-03-10T00:23:10.339Z,98.80
2019-03-10T00:24:46.634Z,98.90
2019-03-10T00:26:22.948Z,99.00
2019-03-10T00:28:02.239Z,98.80
2019-03-10T00:29:38.355Z,98.60
2019-03-10T00:31:14.611Z,98.60
2019-03-10T00:32:51.000Z,98.50
2019-03-10T00:34:27.216Z,98.30
2019-03-10T00:36:03.399Z,98.00
2019-03-10T00:37:39.617Z,97.70
2019-03-10T00:39:32.278Z,97.60
2019-03-10T00:41:36.593Z,97.40
2019-03-10T00:43:59.657Z,97.00
2019-03-10T00:46:15.778Z,96.90
2019-03-10T00:48:29.259Z,96.80
2019-03-10T00:50:21.577Z,96.80
2019-03-10T00:52:17.157Z,96.70
2019-03-10T00:53:54.595Z,96.50
2019-03-10T00:55:30.940Z,96.40
2019-03-10T00:57:07.139Z,96.20
2019-03-10T00:58:43.357Z,96.30
2019-03-10T01:00:19.519Z,96.40
2019-03-10T01:01:55.739Z,96.20
2019-03-10T01:03:31.862Z,96.20
2019-03-10T01:05:08.554Z,96.40
2019-03-10T01:06:44.863Z,96.50
2019-03-10T01:08:21.373Z,96.50
2019-03-10T01:09:57.458Z,96.40
2019-03-10T01:11:33.895Z,96.30
2019-03-10T01:13:10.140Z,96.20
2019-03-10T01:14:46.229Z,96.10
2019-03-10T01:16:22.731Z,96.30
2019-03-10T01:18:00.258Z,96.50
2019-03-10T01:19:38.022Z,96.60
2019-03-10T01:21:16.127Z,96.50
2019-03-10T01:22:52.435Z,96.70
2019-03-10T01:24:30.565Z,96.70
2019-03-10T01:26:06.767Z,96.70
2019-03-10T01:27:42.896Z,96.60
2019-03-10T01:29:19.144Z,96.60
2019-03-10T01:31:02.802Z,96.70
2019-03-10T01:33:02.944Z,96.70
2019-03-10T01:34:46.648Z,96.80
2019-03-10T01:36:21.014Z,96.80
2019-03-10T01:37:57.088Z,96.90
2019-03-10T01:39:33.232Z,96.90
2019-03-10T01:41:09.520Z,97.00
2019-03-10T01:42:45.760Z,97.20
2019-03-10T01:44:22.017Z,97.10
2019-03-10T01:45:58.241Z,97.10
2019-03-10T01:47:34.355Z,97.10
2019-03-10T01:49:10.454Z,97.20
2019-03-10T01:50:46.747Z,97.20
2019-03-10T01:52:22.865Z,97.20
2019-03-10T01:53:59.059Z,97.20
2019-03-10T01:55:35.360Z,97.20
2019-03-10T01:57:11.572Z,97.30
2019-03-10T01:58:47.767Z,97.50
2019-03-10T02:00:24.037Z,97.50
2019-03-10T02:02:01.413Z,97.50
2019-03-10T02:03:37.476Z,97.50
2019-03-10T02:05:14.587Z,97.50
2019-03-10T02:06:50.729Z,97.50
2019-03-10T02:08:26.849Z,97.60
2019-03-10T02:10:03.695Z,97.60
2019-03-10T02:11:39.924Z,97.70
2019-03-10T02:13:16.068Z,97.70
2019-03-10T02:14:52.315Z,97.60
2019-03-10T02:16:28.436Z,97.40
2019-03-10T02:18:04.855Z,97.10
2019-03-10T02:19:40.921Z,96.70
2019-03-10T02:21:16.809Z,96.60
2019-03-10T02:22:52.948Z,96.50
2019-03-10T02:24:28.977Z,96.30
2019-03-10T02:26:05.176Z,96.10
2019-03-10T02:27:41.454Z,95.80
2019-03-10T02:29:17.738Z,95.90
2019-03-10T02:30:53.867Z,95.90
2019-03-10T02:32:29.989Z,96.00
2019-03-10T02:34:06.048Z,95.70
2019-03-10T02:35:42.168Z,95.30
2019-03-10T02:37:18.321Z,94.80
2019-03-10T02:38:54.420Z,94.70
2019-03-10T02:40:30.409Z,94.60
2019-03-10T02:42:06.504Z,94.50
2019-03-10T02:43:42.670Z,94.60
2019-03-10T02:45:18.861Z,94.70
2019-03-10T02:46:55.071Z,94.80
2019-03-10T02:48:31.199Z,94.90
2019-03-10T02:50:10.106Z,95.00
2019-03-10T02:51:46.102Z,95.00
2019-03-10T02:53:22.071Z,94.90
2019-03-10T02:54:58.151Z,94.70
2019-03-10T02:56:34.209Z,94.60
2019-03-10T02:58:10.433Z,94.80
2019-03-10T02:59:46.505Z,94.90
2019-03-10T03:01:22.737Z,95.00
2019-03-10T03:02:58.862Z,95.00
2019-03-10T03:04:35.076Z,94.90
2019-03-10T03:06:11.403Z,94.80
2019-03-10T03:07:47.618Z,94.10
2019-03-10T03:09:23.665Z,93.60
2019-03-10T03:10:59.864Z,93.40
2019-03-10T03:12:35.956Z,93.20
2019-03-10T03:14:12.167Z,93.10
2019-03-10T03:15:48.387Z,92.80
2019-03-10T03:17:24.776Z,92.80
2019-03-10T03:19:00.777Z,92.70
2019-03-10T03:20:36.825Z,92.80
2019-03-10T03:22:13.160Z,93.00
2019-03-10T03:23:49.492Z,93.40
2019-03-10T03:25:25.726Z,93.10
2019-03-10T03:27:02.729Z,93.20
2019-03-10T03:28:38.896Z,93.20
2019-03-10T03:30:18.465Z,93.20
2019-03-10T03:31:54.550Z,93.20
2019-03-10T03:33:30.808Z,92.90
2019-03-10T03:35:36.878Z,92.90
2019-03-10T03:37:13.783Z,92.80
2019-03-10T03:39:00.172Z,92.30
2019-03-10T03:40:37.182Z,92.40
2019-03-10T03:42:13.334Z,92.40
2019-03-10T03:43:49.667Z,92.20
2019-03-10T03:45:25.971Z,92.40
2019-03-10T03:47:02.173Z,92.40
2019-03-10T03:48:38.159Z,92.20
2019-03-10T03:50:14.260Z,92.30
2019-03-10T03:51:50.445Z,92.40
2019-03-10T03:53:26.510Z,92.30
2019-03-10T03:55:02.424Z,92.10
2019-03-10T03:56:38.514Z,91.90
2019-03-10T03:58:14.862Z,91.80
2019-03-10T03:59:51.061Z,91.90
2019-03-10T04:01:31.954Z,92.10
2019-03-10T04:03:08.016Z,91.70
2019-03-10T04:04:44.083Z,91.50
2019-03-10T04:06:20.212Z,91.60
2019-03-10T04:07:56.439Z,91.60
2019-03-10T04:09:32.528Z,91.60
2019-03-10T04:11:08.647Z,91.30
2019-03-10T04:12:44.649Z,91.20
2019-03-10T04:14:20.837Z,91.10
2019-03-10T04:15:56.854Z,90.90
2019-03-10T04:17:32.836Z,91.00
2019-03-10T04:19:08.828Z,91.00
2019-03-10T04:20:45.028Z,91.00
2019-03-10T04:22:21.167Z,91.10
2019-03-10T04:23:57.252Z,91.20
2019-03-10T04:25:33.372Z,91.10
2019-03-10T04:27:09.366Z,91.00
2019-03-10T04:28:45.357Z,91.00
2019-03-10T04:30:21.553Z,91.00
2019-03-10T04:31:57.609Z,90.90
2019-03-10T04:33:33.785Z,90.90
2019-03-10T04:35:09.878Z,90.90
2019-03-10T04:36:45.931Z,91.00
2019-03-10T04:38:22.081Z,91.00
2019-03-10T04:39:58.130Z,90.80
2019-03-10T04:41:34.122Z,90.80
2019-03-10T04:43:10.259Z,90.80
2019-03-10T04:44:46.422Z,90.80
2019-03-10T04:46:22.487Z,90.80
2019-03-10T04:47:58.453Z,90.90
2019-03-10T04:49:34.525Z,90.70
2019-03-10T04:51:10.582Z,90.80
2019-03-10T04:52:46.679Z,90.80
2019-03-10T04:54:24.447Z,90.80
2019-03-10T04:56:21.762Z,90.80
2019-03-10T04:57:59.487Z,90.70
2019-03-10T04:59:36.844Z,90.70
2019-03-10T05:01:12.973Z,90.60
2019-03-10T05:02:49.030Z,90.50
2019-03-10T05:04:25.178Z,90.50
2019-03-10T05:06:01.157Z,90.40
2019-03-10T05:07:37.317Z,90.20
2019-03-10T05:09:13.382Z,90.20
2019-03-10T05:10:49.526Z,90.10
2019-03-10T05:12:25.582Z,90.10
2019-03-10T05:14:01.833Z,90.10
2019-03-10T05:15:38.028Z,90.00
2019-03-10T05:17:14.231Z,90.10
2019-03-10T05:18:50.280Z,90.40
2019-03-10T05:20:26.444Z,90.00
2019-03-10T05:22:03.869Z,89.40
2019-03-10T05:23:41.570Z,88.90
2019-03-10T05:25:22.243Z,88.50
2019-03-10T05:26:58.235Z,88.60
2019-03-10T05:28:37.634Z,88.30
2019-03-10T05:30:13.926Z,88.20
2019-03-10T05:31:49.941Z,88.20
2019-03-10T05:33:25.976Z,88.30
2019-03-10T05:35:01.761Z,88.40
2019-03-10T05:36:37.729Z,89.10
2019-03-10T05:38:13.881Z,88.50
2019-03-10T05:39:49.860Z,88.20
2019-03-10T05:41:25.969Z,88.20
2019-03-10T05:43:02.053Z,88.60
2019-03-10T05:44:38.045Z,88.40
2019-03-10T05:46:14.260Z,88.40
2019-03-10T05:47:50.313Z,89.30
2019-03-10T05:49:26.580Z,88.50
2019-03-10T05:51:02.713Z,88.50
2019-03-10T05:52:38.782Z,88.70
2019-03-10T05:54:14.906Z,88.40
2019-03-10T05:55:51.224Z,88.60
2019-03-10T05:57:27.181Z,88.60
2019-03-10T05:59:03.489Z,88.70
2019-03-10T06:00:43.100Z,88.60
2019-03-10T06:02:17.544Z,88.30
2019-03-10T06:03:53.800Z,88.00
2019-03-10T06:05:29.948Z,88.10
2019-03-10T06:07:07.446Z,88.30
2019-03-10T06:08:43.651Z,88.30
2019-03-10T06:10:19.655Z,88.50
2019-03-10T06:11:55.910Z,88.20
2019-03-10T06:13:31.865Z,88.10
2019-03-10T06:15:10.164Z,88.20
2019-03-10T06:16:46.162Z,88.20
2019-03-10T06:18:22.128Z,88.40
2019-03-10T06:19:58.255Z,88.40
2019-03-10T06:21:34.265Z,88.20
2019-03-10T06:23:10.242Z,88.10
2019-03-10T06:24:46.207Z,88.00
2019-03-10T06:26:22.204Z,88.20
2019-03-10T06:27:58.341Z,88.60
2019-03-10T06:29:34.500Z,87.50
2019-03-10T06:31:10.677Z,87.60
2019-03-10T06:32:46.831Z,87.60
2019-03-10T06:34:22.933Z,87.40
2019-03-10T06:35:58.927Z,87.60
2019-03-10T06:37:34.978Z,87.60
2019-03-10T06:39:11.134Z,87.60
2019-03-10T06:40:47.372Z,87.90
2019-03-10T06:42:23.569Z,88.00
2019-03-10T06:43:59.817Z,87.90
2019-03-10T06:45:36.024Z,87.60
2019-03-10T06:47:12.158Z,87.70
2019-03-10T06:48:48.358Z,87.60
2019-03-10T06:50:24.486Z,87.40
2019-03-10T06:52:00.606Z,87.40
2019-03-10T06:53:36.670Z,87.40
2019-03-10T06:55:12.878Z,87.30
2019-03-10T06:56:48.930Z,86.90
2019-03-10T06:58:25.004Z,87.10
2019-03-10T07:00:01.065Z,86.80
2019-03-10T07:01:37.292Z,86.50
2019-03-10T07:03:13.286Z,85.60
2019-03-10T07:04:49.255Z,84.90
2019-03-10T07:06:25.435Z,84.40
2019-03-10T07:08:01.503Z,84.20
2019-03-10T07:09:37.636Z,83.90
2019-03-10T07:11:13.693Z,83.60
2019-03-10T07:12:50.010Z,83.10
2019-03-10T07:14:26.096Z,83.10
2019-03-10T07:16:02.190Z,82.50
2019-03-10T07:17:38.248Z,81.50
2019-03-10T07:19:14.313Z,80.60
2019-03-10T07:20:50.448Z,79.20
2019-03-10T07:22:26.645Z,78.80
2019-03-10T07:24:02.758Z,77.80
2019-03-10T07:25:38.747Z,76.40
2019-03-10T07:27:14.749Z,75.20
2019-03-10T07:28:52.284Z,73.70
2019-03-10T07:30:31.217Z,71.60
2019-03-10T07:32:09.190Z,70.10
2019-03-10T07:33:49.874Z,68.20
2019-03-10T07:35:43.702Z,67.60
2019-03-10T07:37:36.491Z,66.20
2019-03-10T07:39:16.875Z,65.50
2019-03-10T07:40:57.349Z,64.70
2019-03-10T07:42:35.124Z,63.50
2019-03-10T07:44:12.958Z,62.90
2019-03-10T07:45:50.635Z,62.20
2019-03-10T07:47:41.817Z,61.80
2019-03-10T07:49:35.769Z,61.00
2019-03-10T07:51:13.458Z,60.10
2019-03-10T07:52:51.253Z,59.60
2019-03-10T07:54:32.003Z,59.60
2019-03-10T07:56:11.375Z,59.50
2019-03-10T07:57:52.906Z,58.50
2019-03-10T07:59:39.827Z,57.40
2019-03-10T08:01:17.529Z,56.40
2019-03-10T08:03:01.445Z,57.00
2019-03-10T08:04:39.081Z,57.10
2019-03-10T08:06:16.744Z,55.30
2019-03-10T08:07:54.456Z,54.80
2019-03-10T08:09:32.398Z,54.70
2019-03-10T08:11:17.384Z,54.80
2019-03-10T08:12:55.187Z,55.00
2019-03-10T08:14:32.814Z,52.80
2019-03-10T08:16:08.618Z,53.20
2019-03-10T08:17:49.174Z,52.20
2019-03-10T08:19:26.778Z,52.50
2019-03-10T08:21:20.906Z,51.50
2019-03-10T08:22:59.294Z,51.50
2019-03-10T08:24:36.994Z,52.20
2019-03-10T08:26:20.511Z,52.00
2019-03-10T08:28:14.319Z,52.40
2019-03-10T08:30:07.752Z,52.40
2019-03-10T08:32:01.894Z,51.80
2019-03-10T08:33:40.215Z,51.90
2019-03-10T08:35:20.703Z,52.20
2019-03-10T08:36:58.427Z,51.80
2019-03-10T08:38:48.319Z,51.70
2019-03-10T08:40:29.212Z,50.60
2019-03-10T08:42:20.520Z,52.10
2019-03-10T08:44:05.998Z,52.70
2019-03-10T08:45:43.995Z,52.30
2019-03-10T08:47:27.175Z,51.90
2019-03-10T08:49:10.386Z,52.30
2019-03-10T08:50:53.974Z,53.70
2019-03-10T08:52:37.884Z,53.70
2019-03-10T08:54:16.942Z,53.40
2019-03-10T08:56:00.374Z,54.30
2019-03-10T08:57:38.205Z,54.80
2019-03-10T08:59:32.037Z,56.20
2019-03-10T09:01:17.119Z,54.50
2019-03-10T09:02:54.899Z,54.10
2019-03-10T09:04:35.628Z,54.20
2019-03-10T09:06:22.150Z,53.50
2019-03-10T09:08:11.956Z,53.50
2019-03-10T09:10:02.915Z,52.50
2019-03-10T09:11:56.920Z,53.10
2019-03-10T09:13:34.540Z,53.30
2019-03-10T09:15:15.077Z,54.10
2019-03-10T09:16:58.882Z,53.90
2019-03-10T09:18:52.553Z,54.50
2019-03-10T09:20:33.489Z,55.30
2019-03-10T09:22:27.707Z,55.80
2019-03-10T09:24:05.492Z,54.90
2019-03-10T09:25:47.072Z,55.40
2019-03-10T09:27:41.230Z,54.60
2019-03-10T09:29:21.715Z,54.60
2019-03-10T09:31:02.961Z,53.20
2019-03-10T09:32:57.231Z,52.80
2019-03-10T09:34:34.931Z,51.90
2019-03-10T09:36:27.675Z,51.80
2019-03-10T09:38:14.533Z,51.50
2019-03-10T09:39:52.974Z,51.90
2019-03-10T09:41:39.838Z,52.30
2019-03-10T09:43:18.469Z,51.70
2019-03-10T09:45:02.175Z,51.80
2019-03-10T09:46:54.675Z,50.90
2019-03-10T09:48:32.383Z,51.30
2019-03-10T09:50:23.918Z,51.80
2019-03-10T09:52:17.817Z,51.30
2019-03-10T09:53:58.366Z,50.40
2019-03-10T09:55:45.216Z,50.60
2019-03-10T09:57:31.762Z,50.00
2019-03-10T09:59:11.961Z,48.10
2019-03-10T10:00:50.800Z,47.30
2019-03-10T10:02:44.595Z,47.90
2019-03-10T10:04:38.393Z,48.20
2019-03-10T10:06:16.174Z,46.60
2019-03-10T10:07:52.054Z,46.10
2019-03-10T10:09:29.755Z,45.80
2019-03-10T10:11:07.497Z,46.20
2019-03-10T10:12:48.275Z,45.90
2019-03-10T10:14:28.748Z,46.50
2019-03-10T10:16:22.791Z,47.20
2019-03-10T10:18:12.679Z,47.90
2019-03-10T10:20:06.535Z,47.90
2019-03-10T10:21:44.406Z,46.20
2019-03-10T10:23:25.197Z,46.00
2019-03-10T10:25:14.925Z,46.10
2019-03-10T10:27:11.093Z,46.40
2019-03-10T10:29:05.175Z,46.90
2019-03-10T10:30:59.116Z,45.60
2019-03-10T10:32:39.854Z,45.70
2019-03-10T10:34:23.598Z,46.60
2019-03-10T10:36:01.639Z,46.60
2019-03-10T10:37:43.720Z,47.50
2019-03-10T10:39:27.512Z,48.10
2019-03-10T10:41:21.426Z,47.30
2019-03-10T10:43:08.789Z,45.70
2019-03-10T10:44:49.510Z,47.10
2019-03-10T10:46:42.458Z,47.90
2019-03-10T10:48:20.176Z,48.90
2019-03-10T10:50:14.098Z,49.50
2019-03-10T10:52:08.077Z,50.00
2019-03-10T10:54:01.632Z,50.60
2019-03-10T10:55:56.058Z,51.40
2019-03-10T10:57:39.723Z,51.60
2019-03-10T10:59:20.519Z,51.70
2019-03-10T11:01:10.037Z,52.60
2019-03-10T11:02:47.998Z,52.60
2019-03-10T11:04:25.819Z,52.70
2019-03-10T11:06:05.874Z,52.40
2019-03-10T11:07:44.924Z,52.30
2019-03-10T11:09:38.884Z,51.60
2019-03-10T11:11:28.713Z,51.90
2019-03-10T11:13:06.550Z,51.20
2019-03-10T11:14:44.326Z,51.40
2019-03-10T11:16:25.219Z,52.50
2019-03-10T11:18:09.523Z,52.60
2019-03-10T11:19:53.287Z,53.20
2019-03-10T11:21:33.614Z,53.70
2019-03-10T11:23:09.598Z,53.40
2019-03-10T11:24:50.174Z,52.10
2019-03-10T11:26:30.863Z,51.20
2019-03-10T11:28:25.083Z,51.20
2019-03-10T11:30:15.028Z,51.90
2019-03-10T11:32:08.894Z,52.80
2019-03-10T11:33:46.594Z,52.70
2019-03-10T11:35:39.308Z,53.30
2019-03-10T11:37:19.589Z,53.80
2019-03-10T11:38:55.487Z,53.40
2019-03-10T11:40:50.087Z,53.70
2019-03-10T11:42:31.707Z,54.20
2019-03-10T11:44:07.705Z,53.90
2019-03-10T11:45:48.457Z,54.40
2019-03-10T11:47:28.766Z,54.00
2019-03-10T11:49:06.638Z,54.00
2019-03-10T11:50:44.592Z,53.70
2019-03-10T11:52:25.073Z,52.40
2019-03-10T11:54:08.823Z,52.60
2019-03-10T11:55:56.989Z,50.00
2019-03-10T11:57:34.826Z,50.50
2019-03-10T11:59:12.621Z,51.10
2019-03-10T12:00:50.490Z,50.80
2019-03-10T12:02:46.728Z,50.00
2019-03-10T12:04:24.445Z,49.20
2019-03-10T12:06:09.379Z,49.30
2019-03-10T12:08:05.270Z,49.30
2019-03-10T12:09:41.336Z,50.10
2019-03-10T12:11:17.662Z,51.00
2019-03-10T12:12:53.850Z,50.80
2019-03-10T12:14:30.073Z,51.00
2019-03-10T12:16:06.295Z,50.30
2019-03-10T12:17:43.637Z,50.60
2019-03-10T12:19:19.751Z,51.10
2019-03-10T12:20:57.248Z,51.20
2019-03-10T12:22:33.557Z,51.30
2019-03-10T12:24:09.853Z,51.90
2019-03-10T12:25:45.967Z,50.60
2019-03-10T12:27:22.038Z,50.90
2019-03-10T12:28:58.171Z,51.00
2019-03-10T12:30:34.271Z,49.40
2019-03-10T12:32:10.342Z,49.30
2019-03-10T12:33:46.406Z,49.30
2019-03-10T12:35:33.574Z,49.20
2019-03-10T12:37:00.332Z,49.40
2019-03-10T12:38:36.665Z,49.30
2019-03-10T12:40:13.773Z,48.80
2019-03-10T12:41:57.842Z,48.90
2019-03-10T12:43:27.748Z,49.10
2019-03-10T12:45:04.720Z,49.30
2019-03-10T12:46:40.848Z,49.20
2019-03-10T12:48:16.981Z,49.50
2019-03-10T12:49:53.052Z,49.20
2019-03-10T12:51:29.058Z,49.00
2019-03-10T12:53:05.276Z,49.20
2019-03-10T12:54:41.440Z,49.20
2019-03-10T12:56:17.432Z,48.90
2019-03-10T12:57:53.599Z,48.00
2019-03-10T12:59:29.658Z,48.00
2019-03-10T13:01:06.857Z,48.20
2019-03-10T13:02:43.320Z,48.20
2019-03-10T13:04:19.477Z,49.30
2019-03-10T13:05:55.618Z,48.80
2019-03-10T13:07:31.759Z,48.70
2019-03-10T13:09:08.922Z,49.40
2019-03-10T13:10:45.063Z,49.60
2019-03-10T13:12:21.135Z,49.90
2019-03-10T13:13:57.209Z,50.10
2019-03-10T13:15:33.344Z,50.10
2019-03-10T13:17:09.470Z,50.50
2019-03-10T13:18:45.674Z,51.20
2019-03-10T13:20:28.333Z,51.00
2019-03-10T13:21:59.800Z,51.50
2019-03-10T13:23:35.868Z,52.70
2019-03-10T13:25:13.699Z,52.50
2019-03-10T13:26:49.831Z,53.20
2019-03-10T13:28:25.946Z,54.00
2019-03-10T13:30:02.309Z,53.90
2019-03-10T13:31:38.545Z,53.60
2019-03-10T13:33:14.561Z,54.20
2019-03-10T13:34:50.355Z,55.10
2019-03-10T13:36:26.548Z,57.00
2019-03-10T13:38:02.770Z,59.00
2019-03-10T13:39:38.968Z,60.80
2019-03-10T13:41:15.208Z,61.10
2019-03-10T13:42:51.515Z,61.30
2019-03-10T13:44:27.856Z,62.30
2019-03-10T13:46:04.052Z,63.50
2019-03-10T13:47:40.269Z,64.70
2019-03-10T13:49:16.462Z,65.50
2019-03-10T13:50:52.654Z,66.50
2019-03-10T13:52:28.806Z,67.80
2019-03-10T13:54:04.959Z,68.80
2019-03-10T13:55:41.102Z,69.00
2019-03-10T13:57:17.294Z,70.10
2019-03-10T13:58:53.424Z,70.90
2019-03-10T14:00:29.721Z,71.40
2019-03-10T14:02:06.018Z,71.70
2019-03-10T14:03:42.413Z,71.60
2019-03-10T14:05:18.606Z,71.40
2019-03-10T14:06:54.664Z,72.40
2019-03-10T14:08:30.802Z,72.70
2019-03-10T14:10:10.795Z,70.50
2019-03-10T14:11:46.843Z,70.10
2019-03-10T14:13:24.347Z,70.40
2019-03-10T14:15:00.402Z,71.50
2019-03-10T14:16:36.630Z,71.50
2019-03-10T14:18:12.833Z,71.50
2019-03-10T14:19:48.909Z,71.30
2019-03-10T14:21:24.973Z,71.40
2019-03-10T14:23:01.202Z,71.00
2019-03-10T14:24:37.110Z,71.10
2019-03-10T14:26:13.411Z,71.20
2019-03-10T14:27:49.878Z,70.90
2019-03-10T14:29:26.079Z,70.40
2019-03-10T14:31:02.318Z,70.30
2019-03-10T14:32:38.551Z,70.90
2019-03-10T14:34:14.601Z,72.00
2019-03-10T14:35:50.825Z,73.80
2019-03-10T14:37:26.888Z,74.70
2019-03-10T14:39:04.840Z,76.30
2019-03-10T14:40:41.084Z,77.50
2019-03-10T14:42:17.266Z,77.50
2019-03-10T14:43:53.500Z,77.40
2019-03-10T14:45:29.624Z,78.30
2019-03-10T14:47:06.018Z,79.30
2019-03-10T14:48:42.194Z,80.00
2019-03-10T14:50:20.847Z,81.10
2019-03-10T14:52:01.531Z,82.90
2019-03-10T14:53:37.517Z,82.30
2019-03-10T14:55:23.666Z,83.80
2019-03-10T14:57:02.479Z,84.40
2019-03-10T14:58:37.732Z,85.10
2019-03-10T15:00:30.126Z,87.00
2019-03-10T15:02:06.323Z,86.70
2019-03-10T15:03:42.559Z,86.80
2019-03-10T15:05:18.793Z,86.90
2019-03-10T15:06:54.916Z,87.30
2019-03-10T15:08:30.995Z,87.00
2019-03-10T15:10:11.059Z,87.50
2019-03-10T15:11:47.225Z,88.20
2019-03-10T15:13:23.280Z,88.90
2019-03-10T15:14:59.508Z,89.00
2019-03-10T15:16:35.712Z,88.90
2019-03-10T15:18:11.859Z,89.80
2019-03-10T15:19:47.728Z,90.00
2019-03-10T15:21:23.921Z,90.00
2019-03-10T15:23:00.050Z,90.30
2019-03-10T15:24:36.259Z,90.30
2019-03-10T15:26:12.462Z,90.30
2019-03-10T15:27:48.669Z,90.40
2019-03-10T15:29:24.870Z,90.60
2019-03-10T15:31:00.932Z,90.70
2019-03-10T15:32:37.064Z,91.10
2019-03-10T15:34:13.225Z,90.80
2019-03-10T15:35:49.283Z,90.90
2019-03-10T15:37:25.357Z,91.00
2019-03-10T15:39:01.514Z,91.30
2019-03-10T15:40:39.151Z,91.20
2019-03-10T15:42:15.165Z,91.40
2019-03-10T15:43:51.133Z,91.50
2019-03-10T15:45:28.073Z,92.00
2019-03-10T15:47:04.338Z,92.10
2019-03-10T15:48:40.469Z,92.40
2019-03-10T15:50:29.000Z,92.50
2019-03-10T15:52:07.388Z,92.50
2019-03-10T15:53:42.884Z,92.90
2019-03-10T15:55:19.020Z,92.70
2019-03-10T15:56:55.166Z,92.90
2019-03-10T15:58:32.467Z,93.40
2019-03-10T16:00:20.872Z,93.20
2019-03-10T16:01:57.087Z,93.80
2019-03-10T16:03:33.220Z,94.80
2019-03-10T16:05:11.123Z,94.30
2019-03-10T16:06:47.438Z,94.10
2019-03-10T16:08:23.598Z,94.80
2019-03-10T16:09:59.722Z,95.20
2019-03-10T16:11:35.855Z,95.20
2019-03-10T16:13:11.984Z,95.00
2019-03-10T16:14:48.078Z,95.10
2019-03-10T16:16:25.315Z,95.20
2019-03-10T16:18:01.807Z,95.20
2019-03-10T16:19:37.991Z,95.70
2019-03-10T16:21:14.157Z,95.50
2019-03-10T16:22:50.375Z,95.60
2019-03-10T16:24:26.433Z,95.80
2019-03-10T16:26:02.867Z,95.90
2019-03-10T16:27:38.995Z,96.10
2019-03-10T16:29:15.067Z,96.10
2019-03-10T16:30:51.154Z,96.10
2019-03-10T16:32:27.054Z,96.20
2019-03-10T16:34:03.393Z,96.20
2019-03-10T16:35:39.603Z,96.20
2019-03-10T16:37:15.781Z,96.20
2019-03-10T16:38:52.072Z,96.40
2019-03-10T16:40:28.286Z,96.00
2019-03-10T16:42:04.513Z,95.90
2019-03-10T16:43:40.639Z,95.80
2019-03-10T16:45:22.818Z,95.80
2019-03-10T16:46:58.682Z,96.00
2019-03-10T16:48:34.889Z,96.00
2019-03-10T16:50:17.663Z,96.20
2019-03-10T16:51:53.714Z,96.20
2019-03-10T16:53:29.927Z,96.30
2019-03-10T16:55:09.643Z,96.50
2019-03-10T16:56:45.709Z,96.70
2019-03-10T16:58:21.917Z,96.90
2019-03-10T16:59:58.170Z,97.10
2019-03-10T17:01:34.326Z,97.90
2019-03-10T17:03:10.471Z,98.60
2019-03-10T17:04:46.738Z,98.80
2019-03-10T17:06:22.808Z,99.10
2019-03-10T17:07:59.112Z,99.60
2019-03-10T17:09:35.220Z,98.90
2019-03-10T17:11:11.448Z,99.30
2019-03-10T17:12:47.754Z,99.40
2019-03-10T17:14:25.204Z,99.80
2019-03-10T17:16:01.387Z,99.40
2019-03-10T17:17:37.615Z,99.40
2019-03-10T17:19:13.723Z,99.90
2019-03-10T17:20:54.173Z,99.90
2019-03-10T17:22:29.634Z,99.90
2019-03-10T17:24:05.937Z,99.90
2019-03-10T17:25:42.212Z,99.90
2019-03-10T17:27:18.447Z,99.90
2019-03-10T17:28:54.858Z,99.90
2019-03-10T17:30:31.110Z,99.90
2019-03-10T17:32:07.496Z,99.90
2019-03-10T17:33:43.760Z,99.90
2019-03-10T17:35:21.056Z,99.90
2019-03-10T17:36:57.264Z,99.90
2019-03-10T17:38:33.328Z,99.90
2019-03-10T17:40:16.667Z,99.90
2019-03-10T17:41:52.876Z,99.90
2019-03-10T17:43:28.951Z,99.90
2019-03-10T17:45:07.291Z,99.90
2019-03-10T17:46:43.264Z,99.90
2019-03-10T17:48:20.092Z,99.90
2019-03-10T17:49:56.245Z,99.90
2019-03-10T17:51:32.484Z,99.90
2019-03-10T17:53:08.496Z,99.90
2019-03-10T17:54:44.646Z,99.90
2019-03-10T17:56:20.930Z,99.90
2019-03-10T17:57:57.132Z,99.90
2019-03-10T17:59:34.854Z,99.90
2019-03-10T18:01:10.985Z,99.90
2019-03-10T18:02:47.323Z,99.90
2019-03-10T18:04:23.397Z,99.90
2019-03-10T18:05:59.464Z,99.90
2019-03-10T18:07:35.519Z,99.90
2019-03-10T18:09:11.769Z,99.90
2019-03-10T18:10:47.606Z,99.90
2019-03-10T18:12:23.808Z,99.90
2019-03-10T18:13:59.972Z,99.90
2019-03-10T18:15:36.271Z,99.90
2019-03-10T18:17:12.568Z,99.90
2019-03-10T18:18:48.628Z,99.90
2019-03-10T18:20:25.542Z,99.90
2019-03-10T18:22:01.762Z,99.90
2019-03-10T18:23:37.849Z,99.90
2019-03-10T18:25:14.756Z,99.90
2019-03-10T18:26:50.988Z,99.90
2019-03-10T18:28:27.258Z,99.90
2019-03-10T18:30:03.761Z,99.90
2019-03-10T18:31:39.968Z,99.90
2019-03-10T18:33:16.107Z,99.90
2019-03-10T18:34:53.564Z,99.90
2019-03-10T18:36:29.801Z,99.90
2019-03-10T18:38:05.943Z,99.90
2019-03-10T18:39:42.180Z,99.90
2019-03-10T18:41:18.347Z,99.90
2019-03-10T18:42:54.479Z,99.90
2019-03-10T18:44:30.572Z,99.90
2019-03-10T18:46:06.787Z,99.90
2019-03-10T18:47:42.844Z,99.90
2019-03-10T18:49:19.110Z,99.90
2019-03-10T18:50:55.356Z,99.90
2019-03-10T18:52:31.775Z,99.90
2019-03-10T18:54:07.893Z,99.90
2019-03-10T18:55:46.891Z,99.90
2019-03-10T18:57:22.975Z,99.90
2019-03-10T18:58:59.063Z,99.90
2019-03-10T19:00:35.174Z,99.90
2019-03-10T19:02:11.387Z,99.90
2019-03-10T19:03:47.620Z,99.90
2019-03-10T19:05:23.838Z,99.90
2019-03-10T19:06:59.974Z,99.90
2019-03-10T19:08:36.605Z,99.90
2019-03-10T19:10:14.526Z,99.90
2019-03-10T19:11:50.679Z,99.90
2019-03-10T19:13:26.741Z,99.90
2019-03-10T19:15:02.879Z,99.90
2019-03-10T19:16:40.180Z,99.90
2019-03-10T19:18:18.289Z,99.90
2019-03-10T19:19:53.976Z,99.90
2019-03-10T19:21:30.169Z,99.90
2019-03-10T19:23:06.343Z,99.90
2019-03-10T19:24:42.479Z,99.90
2019-03-10T19:26:18.558Z,99.90
2019-03-10T19:27:54.801Z,99.90
2019-03-10T19:29:31.123Z,99.90
2019-03-10T19:31:07.321Z,99.90
2019-03-10T19:32:43.638Z,99.90
2019-03-10T19:34:19.644Z,99.90
2019-03-10T19:35:55.746Z,99.80
2019-03-10T19:37:31.735Z,99.80
2019-03-10T19:39:08.057Z,99.70
2019-03-10T19:40:44.289Z,99.70
2019-03-10T19:42:20.379Z,99.60
2019-03-10T19:43:57.819Z,99.60
2019-03-10T19:45:34.019Z,99.60
2019-03-10T19:47:10.264Z,99.50
2019-03-10T19:48:46.393Z,99.30
2019-03-10T19:50:28.161Z,99.30
2019-03-10T19:52:04.561Z,99.20
2019-03-10T19:53:40.655Z,99.20
2019-03-10T19:55:24.277Z,99.30
2019-03-10T19:57:00.312Z,99.20
2019-03-10T19:58:36.368Z,99.20
2019-03-10T20:00:20.726Z,99.20
2019-03-10T20:01:56.799Z,99.20
2019-03-10T20:03:32.936Z,99.30
2019-03-10T20:05:09.840Z,99.20
2019-03-10T20:06:45.953Z,99.20
2019-03-10T20:08:22.242Z,99.20
2019-03-10T20:09:58.378Z,99.10
2019-03-10T20:11:34.439Z,99.10
2019-03-10T20:13:10.745Z,99.00
2019-03-10T20:14:46.731Z,99.10
2019-03-10T20:16:22.897Z,99.10
2019-03-10T20:17:59.054Z,99.10
2019-03-10T20:19:35.160Z,99.10
2019-03-10T20:21:11.119Z,99.20
2019-03-10T20:22:47.236Z,99.10
2019-03-10T20:24:23.335Z,98.90
2019-03-10T20:25:59.469Z,98.90
2019-03-10T20:27:35.519Z,98.90
2019-03-10T20:29:11.651Z,98.90
2019-03-10T20:30:47.977Z,99.20
2019-03-10T20:32:24.038Z,98.90
2019-03-10T20:34:00.089Z,98.90
2019-03-10T20:35:36.287Z,98.90
2019-03-10T20:37:12.516Z,98.90
2019-03-10T20:38:48.610Z,98.90
2019-03-10T20:40:26.340Z,98.90
2019-03-10T20:42:05.497Z,98.90
2019-03-10T20:43:40.534Z,98.90
2019-03-10T20:45:17.936Z,98.90
2019-03-10T20:46:55.391Z,99.10
2019-03-10T20:48:31.512Z,99.00
2019-03-10T20:50:15.242Z,99.10
2019-03-10T20:51:52.760Z,99.00
2019-03-10T20:53:30.630Z,99.10
2019-03-10T20:55:09.721Z,99.20
2019-03-10T20:56:45.785Z,99.20
2019-03-10T20:58:21.846Z,99.10
2019-03-10T21:00:00.908Z,99.30
2019-03-10T21:01:35.783Z,99.20
2019-03-10T21:03:11.943Z,99.40
2019-03-10T21:04:48.000Z,99.50
2019-03-10T21:06:24.063Z,99.50
2019-03-10T21:07:59.935Z,99.40